sensor_id;sensor_type;location;lat;lon;timestamp;pressure;altitude;pressure_sealevel;temperature;humidity
5996;BME280;3026;53.612;7.278;2022-11-21T00:00:52;100498.41;;;1.27;100.00
5996;BME280;3026;53.612;7.278;2022-11-21T00:03:19;100503.78;;;1.27;100.00
5996;BME280;3026;53.612;7.278;2022-11-21T00:05:48;100501.34;;;1.24;100.00
5996;BME280;3026;53.612;7.278;2022-11-21T00:08:17;100505.75;;;1.25;100.00
5996;BME280;3026;53.612;7.278;2022-11-21T00:10:45;100505.75;;;1.25;100.00
5996;BME280;3026;53.612;7.278;2022-11-21T00:13:14;100504.03;;;1.24;100.00
5996;BME280;3026;53.612;7.278;2022-11-21T00:15:41;100502.34;;;1.23;100.00
5996;BME280;3026;53.612;7.278;2022-11-21T00:18:08;100504.03;;;1.24;100.00
5996;BME280;3026;53.612;7.278;2022-11-21T00:20:37;100508.44;;;1.25;100.00
5996;BME280;3026;53.612;7.278;2022-11-21T00:23:04;100503.78;;;1.27;100.00
5996;BME280;3026;53.612;7.278;2022-11-21T00:25:32;100496.50;;;1.29;100.00
5996;BME280;3026;53.612;7.278;2022-11-21T00:28:00;100498.19;;;1.30;100.00
5996;BME280;3026;53.612;7.278;2022-11-21T00:30:27;100493.69;;;1.30;100.00
5996;BME280;3026;53.612;7.278;2022-11-21T00:32:53;100490.13;;;1.30;100.00
5996;BME280;3026;53.612;7.278;2022-11-21T00:35:20;100494.28;;;1.34;100.00
5996;BME280;3026;53.612;7.278;2022-11-21T00:37:47;100489.63;;;1.36;100.00
5996;BME280;3026;53.612;7.278;2022-11-21T00:40:15;100487.66;;;1.38;100.00
5996;BME280;3026;53.612;7.278;2022-11-21T00:42:42;100484.91;;;1.39;100.00
5996;BME280;3026;53.612;7.278;2022-11-21T00:45:11;100489.16;;;1.42;100.00
5996;BME280;3026;53.612;7.278;2022-11-21T00:47:40;100485.63;;;1.41;100.00
5996;BME280;3026;53.612;7.278;2022-11-21T00:50:08;100481.09;;;1.42;100.00
5996;BME280;3026;53.612;7.278;2022-11-21T00:52:35;100474.03;;;1.41;100.00
5996;BME280;3026;53.612;7.278;2022-11-21T00:55:02;100465.97;;;1.41;100.00
5996;BME280;3026;53.612;7.278;2022-11-21T00:57:29;100469.50;;;1.41;100.00
5996;BME280;3026;53.612;7.278;2022-11-21T00:59:56;100470.34;;;1.42;100.00
5996;BME280;3026;53.612;7.278;2022-11-21T01:02:24;100468.41;;;1.44;100.00
5996;BME280;3026;53.612;7.278;2022-11-21T01:04:51;100472.06;;;1.43;100.00
5996;BME280;3026;53.612;7.278;2022-11-21T01:07:18;100468.41;;;1.44;100.00
5996;BME280;3026;53.612;7.278;2022-11-21T01:09:44;100468.41;;;1.44;100.00
5996;BME280;3026;53.612;7.278;2022-11-21T01:12:12;100470.34;;;1.42;100.00
5996;BME280;3026;53.612;7.278;2022-11-21T01:14:38;100472.78;;;1.45;100.00
5996;BME280;3026;53.612;7.278;2022-11-21T01:17:05;100470.94;;;1.45;100.00
5996;BME280;3026;53.612;7.278;2022-11-21T01:19:34;100476.19;;;1.47;100.00
5996;BME280;3026;53.612;7.278;2022-11-21T01:22:01;100474.38;;;1.48;100.00
5996;BME280;3026;53.612;7.278;2022-11-21T01:24:27;100477.78;;;1.50;100.00
5996;BME280;3026;53.612;7.278;2022-11-21T01:26:55;100468.63;;;1.52;100.00
5996;BME280;3026;53.612;7.278;2022-11-21T01:29:22;100470.22;;;1.55;100.00
5996;BME280;3026;53.612;7.278;2022-11-21T01:31:49;100463.88;;;1.56;100.00
5996;BME280;3026;53.612;7.278;2022-11-21T01:34:16;100458.63;;;1.54;100.00
5996;BME280;3026;53.612;7.278;2022-11-21T01:36:44;100458.63;;;1.54;100.00
5996;BME280;3026;53.612;7.278;2022-11-21T01:39:11;100455.81;;;1.56;100.00
5996;BME280;3026;53.612;7.278;2022-11-21T01:41:39;100469.09;;;1.57;100.00
5996;BME280;3026;53.612;7.278;2022-11-21T01:44:13;100469.38;;;1.54;100.00
5996;BME280;3026;53.612;7.278;2022-11-21T01:46:42;100470.09;;;1.56;100.00
5996;BME280;3026;53.612;7.278;2022-11-21T01:49:10;100470.81;;;1.58;100.00
5996;BME280;3026;53.612;7.278;2022-11-21T01:51:40;100463.72;;;1.57;100.00
5996;BME280;3026;53.612;7.278;2022-11-21T01:54:13;100471.78;;;1.57;100.00
5996;BME280;3026;53.612;7.278;2022-11-21T01:56:46;100467.16;;;1.59;100.00
5996;BME280;3026;53.612;7.278;2022-11-21T01:59:19;100468.84;;;1.60;100.00
5996;BME280;3026;53.612;7.278;2022-11-21T02:01:50;100462.75;;;1.58;100.00
5996;BME280;3026;53.612;7.278;2022-11-21T02:04:17;100467.16;;;1.59;100.00
5996;BME280;3026;53.612;7.278;2022-11-21T02:06:45;100468.84;;;1.60;100.00
5996;BME280;3026;53.612;7.278;2022-11-21T02:09:14;100472.28;;;1.62;100.00
5996;BME280;3026;53.612;7.278;2022-11-21T02:11:45;100473.03;;;1.64;100.00
5996;BME280;3026;53.612;7.278;2022-11-21T02:14:14;100473.25;;;1.61;100.00
5996;BME280;3026;53.612;7.278;2022-11-21T02:16:41;100466.91;;;1.62;100.00
5996;BME280;3026;53.612;7.278;2022-11-21T02:19:09;100475.72;;;1.64;100.00
5996;BME280;3026;53.612;7.278;2022-11-21T02:21:45;100474.84;;;1.64;100.00
5996;BME280;3026;53.612;7.278;2022-11-21T02:24:21;100470.34;;;1.64;100.00
5996;BME280;3026;53.612;7.278;2022-11-21T02:26:54;100461.53;;;1.62;100.00
5996;BME280;3026;53.612;7.278;2022-11-21T02:29:21;100462.63;;;1.60;100.00
5996;BME280;3026;53.612;7.278;2022-11-21T02:31:48;100461.06;;;1.57;100.00
5996;BME280;3026;53.612;7.278;2022-11-21T02:34:15;100457.75;;;1.54;100.00
5996;BME280;3026;53.612;7.278;2022-11-21T02:36:43;100454.44;;;1.50;100.00
5996;BME280;3026;53.612;7.278;2022-11-21T02:39:16;100463.50;;;1.49;100.00
5996;BME280;3026;53.612;7.278;2022-11-21T02:41:53;100465.59;;;1.45;100.00
5996;BME280;3026;53.612;7.278;2022-11-21T02:44:25;100464.72;;;1.45;100.00
5996;BME280;3026;53.612;7.278;2022-11-21T02:46:54;100469.13;;;1.46;100.00
5996;BME280;3026;53.612;7.278;2022-11-21T02:49:29;100469.00;;;1.48;100.00
5996;BME280;3026;53.612;7.278;2022-11-21T02:51:57;100469.84;;;1.48;100.00
5996;BME280;3026;53.612;7.278;2022-11-21T02:54:23;100458.97;;;1.50;100.00
5996;BME280;3026;53.612;7.278;2022-11-21T02:56:50;100467.03;;;1.50;100.00
5996;BME280;3026;53.612;7.278;2022-11-21T02:59:17;100469.84;;;1.48;100.00
5996;BME280;3026;53.612;7.278;2022-11-21T03:01:45;100452.03;;;1.47;100.00
5996;BME280;3026;53.612;7.278;2022-11-21T03:04:12;100463.50;;;1.49;100.00
5996;BME280;3026;53.612;7.278;2022-11-21T03:06:39;100456.53;;;1.46;100.00
5996;BME280;3026;53.612;7.278;2022-11-21T03:09:06;100465.31;;;1.49;100.00
5996;BME280;3026;53.612;7.278;2022-11-21T03:11:33;100462.28;;;1.53;100.00
5996;BME280;3026;53.612;7.278;2022-11-21T03:14:00;100457.13;;;1.50;100.00
5996;BME280;3026;53.612;7.278;2022-11-21T03:16:27;100463.00;;;1.55;100.00
5996;BME280;3026;53.612;7.278;2022-11-21T03:18:55;100456.78;;;1.55;100.00
5996;BME280;3026;53.612;7.278;2022-11-21T03:21:22;100452.25;;;1.55;100.00
5996;BME280;3026;53.612;7.278;2022-11-21T03:23:49;100453.00;;;1.57;100.00
5996;BME280;3026;53.612;7.278;2022-11-21T03:26:16;100456.66;;;1.56;100.00
5996;BME280;3026;53.612;7.278;2022-11-21T03:28:43;100458.63;;;1.54;100.00
5996;BME280;3026;53.612;7.278;2022-11-21T03:31:09;100460.31;;;1.55;100.00
5996;BME280;3026;53.612;7.278;2022-11-21T03:33:36;100453.25;;;1.54;100.00
5996;BME280;3026;53.612;7.278;2022-11-21T03:36:05;100447.88;;;1.54;100.00
5996;BME280;3026;53.612;7.278;2022-11-21T03:38:31;100453.25;;;1.54;100.00
5996;BME280;3026;53.612;7.278;2022-11-21T03:41:02;100442.50;;;1.54;100.00
5996;BME280;3026;53.612;7.278;2022-11-21T03:43:30;100439.31;;;1.49;100.00
5996;BME280;3026;53.612;7.278;2022-11-21T03:45:56;100435.03;;;1.46;100.00
5996;BME280;3026;53.612;7.278;2022-11-21T03:48:24;100436.16;;;1.44;100.00
5996;BME280;3026;53.612;7.278;2022-11-21T03:50:50;100431.03;;;1.41;100.00
5996;BME280;3026;53.612;7.278;2022-11-21T03:53:19;100429.34;;;1.40;100.00
5996;BME280;3026;53.612;7.278;2022-11-21T03:55:46;100432.97;;;1.39;100.00
5996;BME280;3026;53.612;7.278;2022-11-21T03:58:12;100441.91;;;1.39;100.00
5996;BME280;3026;53.612;7.278;2022-11-21T04:00:40;100444.59;;;1.39;100.00
5996;BME280;3026;53.612;7.278;2022-11-21T04:03:06;100440.19;;;1.38;100.00
5996;BME280;3026;53.612;7.278;2022-11-21T04:05:34;100445.19;;;1.43;100.00
5996;BME280;3026;53.612;7.278;2022-11-21T04:08:00;100444.34;;;1.42;100.00
5996;BME280;3026;53.612;7.278;2022-11-21T04:10:28;100443.22;;;1.45;100.00
5996;BME280;3026;53.612;7.278;2022-11-21T04:12:56;100433.94;;;1.49;100.00
5996;BME280;3026;53.612;7.278;2022-11-21T04:15:23;100439.09;;;1.52;100.00
5996;BME280;3026;53.612;7.278;2022-11-21T04:17:50;100433.44;;;1.55;100.00
5996;BME280;3026;53.612;7.278;2022-11-21T04:20:17;100444.19;;;1.55;100.00
5996;BME280;3026;53.612;7.278;2022-11-21T04:22:44;100441.50;;;1.55;100.00
5996;BME280;3026;53.612;7.278;2022-11-21T04:25:11;100432.59;;;1.55;100.00
5996;BME280;3026;53.612;7.278;2022-11-21T04:27:39;100431.75;;;1.54;100.00
5996;BME280;3026;53.612;7.278;2022-11-21T04:30:07;100435.16;;;1.56;100.00
5996;BME280;3026;53.612;7.278;2022-11-21T04:32:34;100426.13;;;1.57;100.00
5996;BME280;3026;53.612;7.278;2022-11-21T04:35:01;100427.81;;;1.58;100.00
5996;BME280;3026;53.612;7.278;2022-11-21T04:37:28;100420.75;;;1.57;100.00
5996;BME280;3026;53.612;7.278;2022-11-21T04:39:55;100419.03;;;1.56;100.00
5996;BME280;3026;53.612;7.278;2022-11-21T04:42:22;100408.28;;;1.56;100.00
5996;BME280;3026;53.612;7.278;2022-11-21T04:44:50;100411.69;;;1.58;100.00
5996;BME280;3026;53.612;7.278;2022-11-21T04:47:17;100411.69;;;1.58;100.00
5996;BME280;3026;53.612;7.278;2022-11-21T04:49:44;100424.16;;;1.59;100.00
5996;BME280;3026;53.612;7.278;2022-11-21T04:52:11;100416.22;;;1.58;100.00
5996;BME280;3026;53.612;7.278;2022-11-21T04:54:38;100417.19;;;1.57;100.00
5996;BME280;3026;53.612;7.278;2022-11-21T04:57:04;100411.94;;;1.55;100.00
5996;BME280;3026;53.612;7.278;2022-11-21T04:59:32;100408.53;;;1.53;100.00
5996;BME280;3026;53.612;7.278;2022-11-21T05:02:01;100412.22;;;1.52;100.00
5996;BME280;3026;53.612;7.278;2022-11-21T05:04:28;100412.22;;;1.52;100.00
5996;BME280;3026;53.612;7.278;2022-11-21T05:06:55;100409.53;;;1.52;100.00
5996;BME280;3026;53.612;7.278;2022-11-21T05:09:22;100408.53;;;1.53;100.00
5996;BME280;3026;53.612;7.278;2022-11-21T05:11:49;100399.50;;;1.54;100.00
5996;BME280;3026;53.612;7.278;2022-11-21T05:14:33;100398.66;;;1.54;100.00
5996;BME280;3026;53.612;7.278;2022-11-21T05:17:02;100388.75;;;1.54;100.00
5996;BME280;3026;53.612;7.278;2022-11-21T05:19:29;100392.44;;;1.53;100.00
5996;BME280;3026;53.612;7.278;2022-11-21T05:21:56;100383.63;;;1.51;100.00
5996;BME280;3026;53.612;7.278;2022-11-21T05:24:25;100378.28;;;1.51;100.00
5996;BME280;3026;53.612;7.278;2022-11-21T05:26:53;100382.66;;;1.52;100.00
5996;BME280;3026;53.612;7.278;2022-11-21T05:29:20;100381.69;;;1.53;100.00
5996;BME280;3026;53.612;7.278;2022-11-21T05:31:47;100383.38;;;1.54;100.00
5996;BME280;3026;53.612;7.278;2022-11-21T05:34:15;100385.81;;;1.57;100.00
5996;BME280;3026;53.612;7.278;2022-11-21T05:36:42;100382.13;;;1.58;100.00
5996;BME280;3026;53.612;7.278;2022-11-21T05:39:09;100379.44;;;1.58;100.00
5996;BME280;3026;53.612;7.278;2022-11-21T05:41:36;100372.38;;;1.57;100.00
5996;BME280;3026;53.612;7.278;2022-11-21T05:44:04;100368.69;;;1.58;100.00
5996;BME280;3026;53.612;7.278;2022-11-21T05:46:30;100360.63;;;1.58;100.00
5996;BME280;3026;53.612;7.278;2022-11-21T05:48:57;100360.78;;;1.57;100.00
5996;BME280;3026;53.612;7.278;2022-11-21T05:51:25;100361.63;;;1.57;100.00
5996;BME280;3026;53.612;7.278;2022-11-21T05:53:52;100344.91;;;1.54;100.00
5996;BME280;3026;53.612;7.278;2022-11-21T05:56:19;100353.31;;;1.60;100.00
5996;BME280;3026;53.612;7.278;2022-11-21T05:58:45;100359.66;;;1.59;100.00
5996;BME280;3026;53.612;7.278;2022-11-21T06:01:13;100349.75;;;1.60;100.00
5996;BME280;3026;53.612;7.278;2022-11-21T06:03:41;100351.47;;;1.61;100.00
5996;BME280;3026;53.612;7.278;2022-11-21T06:06:09;100352.31;;;1.61;100.00
5996;BME280;3026;53.612;7.278;2022-11-21T06:08:40;100352.31;;;1.61;100.00
5996;BME280;3026;53.612;7.278;2022-11-21T06:11:09;100353.44;;;1.59;100.00
5996;BME280;3026;53.612;7.278;2022-11-21T06:13:37;100355.25;;;1.58;100.00
5996;BME280;3026;53.612;7.278;2022-11-21T06:16:05;100357.94;;;1.58;100.00
5996;BME280;3026;53.612;7.278;2022-11-21T06:18:34;100354.53;;;1.56;100.00
5996;BME280;3026;53.612;7.278;2022-11-21T06:21:02;100345.50;;;1.57;100.00
5996;BME280;3026;53.612;7.278;2022-11-21T06:23:30;100346.34;;;1.58;100.00
5996;BME280;3026;53.612;7.278;2022-11-21T06:25:59;100337.44;;;1.57;100.00
5996;BME280;3026;53.612;7.278;2022-11-21T06:28:28;100343.81;;;1.56;100.00
5996;BME280;3026;53.612;7.278;2022-11-21T06:30:59;100338.44;;;1.56;100.00
5996;BME280;3026;53.612;7.278;2022-11-21T06:33:27;100344.66;;;1.57;100.00
5996;BME280;3026;53.612;7.278;2022-11-21T06:35:54;100335.75;;;1.56;100.00
5996;BME280;3026;53.612;7.278;2022-11-21T06:38:21;100329.38;;;1.57;100.00
5996;BME280;3026;53.612;7.278;2022-11-21T06:40:48;100334.75;;;1.57;100.00
5996;BME280;3026;53.612;7.278;2022-11-21T06:43:16;100333.06;;;1.56;100.00
5996;BME280;3026;53.612;7.278;2022-11-21T06:45:43;100332.06;;;1.57;100.00
5996;BME280;3026;53.612;7.278;2022-11-21T06:48:09;100331.09;;;1.58;100.00
5996;BME280;3026;53.612;7.278;2022-11-21T06:50:36;100331.81;;;1.60;100.00
5996;BME280;3026;53.612;7.278;2022-11-21T06:53:03;100337.94;;;1.62;100.00
5996;BME280;3026;53.612;7.278;2022-11-21T06:55:30;100330.59;;;1.64;100.00
5996;BME280;3026;53.612;7.278;2022-11-21T06:57:57;100326.91;;;1.65;100.00
5996;BME280;3026;53.612;7.278;2022-11-21T07:00:26;100329.59;;;1.65;100.00
5996;BME280;3026;53.612;7.278;2022-11-21T07:02:53;100320.69;;;1.65;100.00
5996;BME280;3026;53.612;7.278;2022-11-21T07:05:20;100339.38;;;1.66;100.00
5996;BME280;3026;53.612;7.278;2022-11-21T07:07:47;100343.03;;;1.65;100.00
5996;BME280;3026;53.612;7.278;2022-11-21T07:10:14;100352.09;;;1.64;100.00
5996;BME280;3026;53.612;7.278;2022-11-21T07:12:40;100346.72;;;1.64;100.00
5996;BME280;3026;53.612;7.278;2022-11-21T07:15:26;100353.91;;;1.64;100.00
5996;BME280;3026;53.612;7.278;2022-11-21T07:17:53;100354.06;;;1.62;100.00
5996;BME280;3026;53.612;7.278;2022-11-21T07:20:19;100350.38;;;1.63;100.00
5996;BME280;3026;53.612;7.278;2022-11-21T07:22:46;100350.38;;;1.63;100.00
5996;BME280;3026;53.612;7.278;2022-11-21T07:25:13;100352.09;;;1.64;100.00
5996;BME280;3026;53.612;7.278;2022-11-21T07:27:40;100355.50;;;1.66;100.00
5996;BME280;3026;53.612;7.278;2022-11-21T07:30:08;100359.16;;;1.65;100.00
5996;BME280;3026;53.612;7.278;2022-11-21T07:32:36;100353.78;;;1.65;100.00
5996;BME280;3026;53.612;7.278;2022-11-21T07:35:04;100352.09;;;1.64;100.00
5996;BME280;3026;53.612;7.278;2022-11-21T07:37:31;100361.13;;;1.63;100.00
5996;BME280;3026;53.612;7.278;2022-11-21T07:39:57;100354.06;;;1.62;100.00
5996;BME280;3026;53.612;7.278;2022-11-21T07:42:24;100352.09;;;1.64;100.00
5996;BME280;3026;53.612;7.278;2022-11-21T07:44:51;100353.78;;;1.65;100.00
5996;BME280;3026;53.612;7.278;2022-11-21T07:47:18;100348.41;;;1.65;100.00
5996;BME280;3026;53.612;7.278;2022-11-21T07:49:46;100353.78;;;1.65;100.00
5996;BME280;3026;53.612;7.278;2022-11-21T07:52:13;100352.69;;;1.68;100.00
5996;BME280;3026;53.612;7.278;2022-11-21T07:54:40;100355.22;;;1.69;100.00
5996;BME280;3026;53.612;7.278;2022-11-21T07:57:06;100347.88;;;1.71;100.00
5996;BME280;3026;53.612;7.278;2022-11-21T07:59:33;100353.03;;;1.74;100.00
5996;BME280;3026;53.612;7.278;2022-11-21T08:02:00;100343.13;;;1.75;100.00
5996;BME280;3026;53.612;7.278;2022-11-21T08:04:28;100349.34;;;1.75;100.00
5996;BME280;3026;53.612;7.278;2022-11-21T08:06:56;100343.97;;;1.75;100.00
5996;BME280;3026;53.612;7.278;2022-11-21T08:09:26;100340.31;;;1.77;100.00
5996;BME280;3026;53.612;7.278;2022-11-21T08:11:53;100340.53;;;1.73;100.00
5996;BME280;3026;53.612;7.278;2022-11-21T08:14:20;100342.28;;;1.74;100.00
5996;BME280;3026;53.612;7.278;2022-11-21T08:16:50;100340.31;;;1.77;100.00
5996;BME280;3026;53.612;7.278;2022-11-21T08:19:17;100333.22;;;1.75;100.00
5996;BME280;3026;53.612;7.278;2022-11-21T08:21:44;100327.59;;;1.79;100.00
5996;BME280;3026;53.612;7.278;2022-11-21T08:24:12;100322.22;;;1.79;100.00
5996;BME280;3026;53.612;7.278;2022-11-21T08:26:41;100316.00;;;1.78;100.00
5996;BME280;3026;53.612;7.278;2022-11-21T08:29:09;100305.09;;;1.80;100.00
5996;BME280;3026;53.612;7.278;2022-11-21T08:31:36;100311.19;;;1.82;100.00
5996;BME280;3026;53.612;7.278;2022-11-21T08:34:03;100312.03;;;1.82;100.00
5996;BME280;3026;53.612;7.278;2022-11-21T08:36:30;100311.91;;;1.84;100.00
5996;BME280;3026;53.612;7.278;2022-11-21T08:38:57;100310.81;;;1.86;100.00
5996;BME280;3026;53.612;7.278;2022-11-21T08:41:25;100308.00;;;1.88;100.00
5996;BME280;3026;53.612;7.278;2022-11-21T08:44:21;100310.41;;;1.91;100.00
5996;BME280;3026;53.612;7.278;2022-11-21T08:46:47;100315.81;;;1.91;100.00
5996;BME280;3026;53.612;7.278;2022-11-21T08:49:14;100318.34;;;1.92;100.00
5996;BME280;3026;53.612;7.278;2022-11-21T08:51:41;100320.19;;;1.92;100.00
5996;BME280;3026;53.612;7.278;2022-11-21T08:54:08;100319.91;;;1.95;100.00
5996;BME280;3026;53.612;7.278;2022-11-21T08:56:37;100309.16;;;1.95;100.00
5996;BME280;3026;53.612;7.278;2022-11-21T08:59:03;100310.03;;;1.95;100.00
5996;BME280;3026;53.612;7.278;2022-11-21T09:01:31;100307.34;;;1.95;100.00
5996;BME280;3026;53.612;7.278;2022-11-21T09:03:57;100302.81;;;1.96;100.00
5996;BME280;3026;53.612;7.278;2022-11-21T09:06:24;100302.81;;;1.96;100.00
5996;BME280;3026;53.612;7.278;2022-11-21T09:08:51;100300.13;;;1.96;100.00
5996;BME280;3026;53.612;7.278;2022-11-21T09:11:18;100293.78;;;1.97;100.00
5996;BME280;3026;53.612;7.278;2022-11-21T09:13:46;100297.44;;;1.96;100.00
5996;BME280;3026;53.612;7.278;2022-11-21T09:16:33;100290.22;;;1.96;100.00
5996;BME280;3026;53.612;7.278;2022-11-21T09:19:17;100292.78;;;1.98;100.00
5996;BME280;3026;53.612;7.278;2022-11-21T09:21:45;100298.91;;;2.00;100.00
5996;BME280;3026;53.612;7.278;2022-11-21T09:24:14;100296.91;;;2.02;100.00
5996;BME280;3026;53.612;7.278;2022-11-21T09:26:41;100300.31;;;2.04;100.00
5996;BME280;3026;53.612;7.278;2022-11-21T09:29:09;100296.50;;;2.07;100.00
5996;BME280;3026;53.612;7.278;2022-11-21T09:31:36;100294.69;;;2.07;100.00
5996;BME280;3026;53.612;7.278;2022-11-21T09:34:03;100301.75;;;2.08;100.00
5996;BME280;3026;53.612;7.278;2022-11-21T09:36:30;100303.50;;;2.09;100.00
5996;BME280;3026;53.612;7.278;2022-11-21T09:38:57;100294.44;;;2.10;100.00
5996;BME280;3026;53.612;7.278;2022-11-21T09:41:35;100287.94;;;2.13;100.00
5996;BME280;3026;53.612;7.278;2022-11-21T09:44:35;100286.81;;;2.15;100.00
5996;BME280;3026;53.612;7.278;2022-11-21T09:47:13;100281.16;;;2.18;100.00
5996;BME280;3026;53.612;7.278;2022-11-21T09:49:47;100289.97;;;2.20;100.00
5996;BME280;3026;53.612;7.278;2022-11-21T09:52:16;100293.38;;;2.22;100.00
5996;BME280;3026;53.612;7.278;2022-11-21T09:54:49;100286.03;;;2.24;100.00
5996;BME280;3026;53.612;7.278;2022-11-21T09:57:20;100279.38;;;2.28;100.00
5996;BME280;3026;53.612;7.278;2022-11-21T09:59:51;100272.75;;;2.32;100.00
5996;BME280;3026;53.612;7.278;2022-11-21T10:02:20;100273.34;;;2.36;100.00
5996;BME280;3026;53.612;7.278;2022-11-21T10:04:49;100273.06;;;2.39;100.00
5996;BME280;3026;53.612;7.278;2022-11-21T10:07:21;100268.25;;;2.43;100.00
5996;BME280;3026;53.612;7.278;2022-11-21T10:10:07;100267.72;;;2.49;100.00
5996;BME280;3026;53.612;7.278;2022-11-21T10:12:44;100256.44;;;2.55;100.00
5996;BME280;3026;53.612;7.278;2022-11-21T10:15:30;100270.06;;;2.63;100.00
5996;BME280;3026;53.612;7.278;2022-11-21T10:18:19;100260.75;;;2.67;100.00
5996;BME280;3026;53.612;7.278;2022-11-21T10:20:54;100255.06;;;2.70;100.00
5996;BME280;3026;53.612;7.278;2022-11-21T10:23:35;100255.38;;;2.77;100.00
5996;BME280;3026;53.612;7.278;2022-11-21T10:26:13;100242.94;;;2.85;100.00
5996;BME280;3026;53.612;7.278;2022-11-21T10:28:46;100243.53;;;2.99;100.00
5996;BME280;3026;53.612;7.278;2022-11-21T10:31:18;100234.31;;;3.11;100.00
5996;BME280;3026;53.612;7.278;2022-11-21T10:33:49;100237.19;;;3.19;100.00
5996;BME280;3026;53.612;7.278;2022-11-21T10:36:26;100238.47;;;3.34;100.00
5996;BME280;3026;53.612;7.278;2022-11-21T10:39:03;100225.69;;;3.56;100.00
5996;BME280;3026;53.612;7.278;2022-11-21T10:41:39;100216.31;;;3.89;100.00
5996;BME280;3026;53.612;7.278;2022-11-21T10:44:18;100216.50;;;4.15;100.00
5996;BME280;3026;53.612;7.278;2022-11-21T10:47:14;100211.38;;;4.31;100.00
5996;BME280;3026;53.612;7.278;2022-11-21T10:49:57;100208.34;;;4.71;100.00
5996;BME280;3026;53.612;7.278;2022-11-21T10:52:26;100196.38;;;5.01;100.00
5996;BME280;3026;53.612;7.278;2022-11-21T10:55:08;100187.50;;;5.26;100.00
5996;BME280;3026;53.612;7.278;2022-11-21T10:57:39;100187.34;;;5.46;100.00
5996;BME280;3026;53.612;7.278;2022-11-21T11:00:15;100181.44;;;5.68;100.00
5996;BME280;3026;53.612;7.278;2022-11-21T11:03:04;100180.72;;;5.66;100.00
5996;BME280;3026;53.612;7.278;2022-11-21T11:05:32;100170.72;;;5.84;100.00
5996;BME280;3026;53.612;7.278;2022-11-21T11:08:06;100172.94;;;6.07;100.00
5996;BME280;3026;53.612;7.278;2022-11-21T11:10:35;100167.59;;;6.15;100.00
5996;BME280;3026;53.612;7.278;2022-11-21T11:13:02;100165.22;;;6.20;100.00
5996;BME280;3026;53.612;7.278;2022-11-21T11:16:00;100173.44;;;6.36;100.00
5996;BME280;3026;53.612;7.278;2022-11-21T11:18:30;100158.78;;;6.55;100.00
5996;BME280;3026;53.612;7.278;2022-11-21T11:21:11;100164.13;;;6.73;100.00
5996;BME280;3026;53.612;7.278;2022-11-21T11:23:39;100151.09;;;6.77;100.00
5996;BME280;3026;53.612;7.278;2022-11-21T11:26:21;100154.69;;;6.85;100.00
5996;BME280;3026;53.612;7.278;2022-11-21T11:28:49;100148.41;;;6.93;100.00
5996;BME280;3026;53.612;7.278;2022-11-21T11:31:16;100142.47;;;6.89;100.00
5996;BME280;3026;53.612;7.278;2022-11-21T11:33:51;100141.13;;;6.93;100.00
5996;BME280;3026;53.612;7.278;2022-11-21T11:36:30;100144.53;;;6.95;100.00
5996;BME280;3026;53.612;7.278;2022-11-21T11:39:00;100137.09;;;6.97;100.00
5996;BME280;3026;53.612;7.278;2022-11-21T11:41:53;100130.97;;;7.03;100.00
5996;BME280;3026;53.612;7.278;2022-11-21T11:44:46;100120.69;;;7.07;100.00
5996;BME280;3026;53.612;7.278;2022-11-21T11:47:35;100114.75;;;7.20;100.00
5996;BME280;3026;53.612;7.278;2022-11-21T11:50:10;100121.50;;;7.40;100.00
5996;BME280;3026;53.612;7.278;2022-11-21T11:52:49;100124.22;;;7.48;100.00
5996;BME280;3026;53.612;7.278;2022-11-21T11:55:22;100125.59;;;7.36;100.00
5996;BME280;3026;53.612;7.278;2022-11-21T11:57:53;100128.63;;;7.25;100.00
5996;BME280;3026;53.612;7.278;2022-11-21T12:00:28;100124.22;;;7.16;100.00
5996;BME280;3026;53.612;7.278;2022-11-21T12:03:00;100127.94;;;7.15;100.00
5996;BME280;3026;53.612;7.278;2022-11-21T12:05:31;100115.91;;;7.17;100.00
5996;BME280;3026;53.612;7.278;2022-11-21T12:08:05;100106.59;;;7.28;100.00
5996;BME280;3026;53.612;7.278;2022-11-21T12:10:40;100105.59;;;7.37;100.00
5996;BME280;3026;53.612;7.278;2022-11-21T12:13:24;100099.47;;;7.27;100.00
5996;BME280;3026;53.612;7.278;2022-11-21T12:15:54;100097.59;;;7.03;100.00
5996;BME280;3026;53.612;7.278;2022-11-21T12:18:29;100090.78;;;6.83;100.00
5996;BME280;3026;53.612;7.278;2022-11-21T12:21:04;100073.00;;;6.64;100.00
5996;BME280;3026;53.612;7.278;2022-11-21T12:23:38;100081.28;;;6.54;100.00
5996;BME280;3026;53.612;7.278;2022-11-21T12:26:17;100088.50;;;6.46;100.00
5996;BME280;3026;53.612;7.278;2022-11-21T12:28:58;100077.97;;;6.26;100.00
5996;BME280;3026;53.612;7.278;2022-11-21T12:31:36;100074.84;;;6.05;100.00
5996;BME280;3026;53.612;7.278;2022-11-21T12:34:16;100075.78;;;5.96;100.00
5996;BME280;3026;53.612;7.278;2022-11-21T12:36:55;100068.59;;;5.86;100.00
5996;BME280;3026;53.612;7.278;2022-11-21T12:39:48;100066.88;;;5.77;100.00
5996;BME280;3026;53.612;7.278;2022-11-21T12:42:27;100069.53;;;5.69;100.00
5996;BME280;3026;53.612;7.278;2022-11-21T12:45:24;100069.13;;;5.56;100.00
5996;BME280;3026;53.612;7.278;2022-11-21T12:48:24;100056.91;;;5.52;100.00
5996;BME280;3026;53.612;7.278;2022-11-21T12:51:43;100054.00;;;5.45;100.00
5996;BME280;3026;53.612;7.278;2022-11-21T12:54:59;100039.94;;;5.42;100.00
5996;BME280;3026;53.612;7.278;2022-11-21T12:57:46;100041.22;;;5.30;100.00
5996;BME280;3026;53.612;7.278;2022-11-21T13:00:23;100030.72;;;5.26;100.00
5996;BME280;3026;53.612;7.278;2022-11-21T13:03:08;100036.81;;;5.28;100.00
5996;BME280;3026;53.612;7.278;2022-11-21T13:05:43;100031.41;;;5.28;100.00
5996;BME280;3026;53.612;7.278;2022-11-21T13:08:12;100026.34;;;5.25;100.00
5996;BME280;3026;53.612;7.278;2022-11-21T13:10:49;100020.25;;;5.23;100.00
5996;BME280;3026;53.612;7.278;2022-11-21T13:13:40;100016.84;;;5.21;100.00
5996;BME280;3026;53.612;7.278;2022-11-21T13:16:16;100010.72;;;5.19;100.00
5996;BME280;3026;53.612;7.278;2022-11-21T13:19:03;100006.97;;;5.12;100.00
5996;BME280;3026;53.612;7.278;2022-11-21T13:21:42;100008.59;;;5.05;100.00
5996;BME280;3026;53.612;7.278;2022-11-21T13:24:09;100000.81;;;5.02;100.00
5996;BME280;3026;53.612;7.278;2022-11-21T13:26:51;100009.25;;;4.99;100.00
5996;BME280;3026;53.612;7.278;2022-11-21T13:29:18;100002.78;;;4.92;100.00